Pagrindinis puslapis
METAR-TAF:

METAR-TAF

Oro uostai :

Maringá, Parana, Brazilija

platuma: 23-25S, ilguma: 051-57W, Aukštis: 542 m

Dabartinis oras

Ataskaita buvo paskelbta 1 valandą ir 20 minutes, ne 10:00 UTC
Vėjas 2 kt iš Pietų/Pietvakarių
Temperatūra 17°C
Drėgmė 94%
Slėgis 1021 hPa
Matomumas: 0100 m
rūkas

METAR: SBMG 041000Z 21002KT 0100 FG VV000 17/16 Q1021

Laikas: 08:20 (11:20 UTC)


TAF: trūkstamas

Orai ataskaitas ir orų prognozės (METAR, TAF).

turimą stotys yra geltonos ir raudonos taškus žemėlapyje.

Perkelti pele per norėdami pamatyti stoties vardą.

Tada spustelėkite, norėdami matyti oro stebėjimo ir prognozės.

Norėdami pakeisti žemėlapį: spustelėkite ant žalios mygtukų su juodo kryžiaus žemyn,; žalią mygtuką su brūkšneliu, jei norite nutolinti; arba žalių rodyklių gretimoms žemėlapius.


METAR-TAF: